createdAt,value
2022-10-25T00:01:21.460Z,1.40
2022-10-25T00:03:48.265Z,1.50
2022-10-25T00:06:15.062Z,1.30
2022-10-25T00:08:41.650Z,1.83
2022-10-25T00:11:08.966Z,1.45
2022-10-25T00:13:35.542Z,1.90
2022-10-25T00:16:02.155Z,2.00
2022-10-25T00:18:28.736Z,2.03
2022-10-25T00:20:55.462Z,1.73
2022-10-25T00:23:22.183Z,2.30
2022-10-25T00:25:48.824Z,2.22
2022-10-25T00:28:15.418Z,2.05
2022-10-25T00:30:42.027Z,1.92
2022-10-25T00:33:08.621Z,2.08
2022-10-25T00:35:37.087Z,1.75
2022-10-25T00:38:03.708Z,2.35
2022-10-25T00:40:30.311Z,2.17
2022-10-25T00:42:56.983Z,2.08
2022-10-25T00:45:28.147Z,1.98
2022-10-25T00:48:01.938Z,2.00
2022-10-25T00:50:40.583Z,2.38
2022-10-25T00:53:09.824Z,2.15
2022-10-25T00:55:37.030Z,2.30
2022-10-25T00:58:07.045Z,1.85
2022-10-25T01:00:33.685Z,2.40
2022-10-25T01:03:00.311Z,1.95
2022-10-25T01:05:26.929Z,1.60
2022-10-25T01:07:53.525Z,1.67
2022-10-25T01:10:20.347Z,1.60
2022-10-25T01:12:49.882Z,1.83
2022-10-25T01:15:18.685Z,1.70
2022-10-25T01:17:55.877Z,2.00
2022-10-25T01:20:31.677Z,1.70
2022-10-25T01:23:25.751Z,1.90
2022-10-25T01:26:04.456Z,2.15
2022-10-25T01:28:36.980Z,2.08
2022-10-25T01:31:03.510Z,2.70
2022-10-25T01:33:56.088Z,1.60
2022-10-25T01:36:29.712Z,2.00
2022-10-25T01:39:19.763Z,2.78
2022-10-25T01:42:11.622Z,2.25
2022-10-25T01:44:40.370Z,2.35
2022-10-25T01:47:17.925Z,2.33
2022-10-25T01:49:52.482Z,2.00
2022-10-25T01:52:20.831Z,2.20
2022-10-25T01:54:47.854Z,2.00
2022-10-25T01:57:41.672Z,1.63
2022-10-25T02:00:10.281Z,2.10
2022-10-25T02:03:02.534Z,2.10
2022-10-25T02:05:54.745Z,2.17
2022-10-25T02:08:41.285Z,2.20
2022-10-25T02:11:23.510Z,2.00
2022-10-25T02:14:02.091Z,2.00
2022-10-25T02:16:32.040Z,1.98
2022-10-25T02:19:01.434Z,2.40
2022-10-25T02:21:28.228Z,2.58
2022-10-25T02:23:54.988Z,2.60
2022-10-25T02:26:21.583Z,2.25
2022-10-25T02:28:48.222Z,2.33
2022-10-25T02:31:18.854Z,2.25
2022-10-25T02:33:46.104Z,2.22
2022-10-25T02:36:14.084Z,2.35
2022-10-25T02:38:41.606Z,2.50
2022-10-25T02:41:08.426Z,2.30
2022-10-25T02:43:35.003Z,2.10
2022-10-25T02:46:08.909Z,2.10
2022-10-25T02:48:36.015Z,1.95
2022-10-25T02:51:03.207Z,2.10
2022-10-25T02:53:29.810Z,2.35
2022-10-25T02:56:03.646Z,2.58
2022-10-25T02:58:35.307Z,2.20
2022-10-25T03:01:02.302Z,2.63
2022-10-25T03:03:29.233Z,2.15
2022-10-25T03:05:56.112Z,2.67
2022-10-25T03:08:22.948Z,2.28
2022-10-25T03:10:49.631Z,2.33
2022-10-25T03:13:16.206Z,2.58
2022-10-25T03:16:24.712Z,2.80
2022-10-25T03:18:51.351Z,2.35
2022-10-25T03:21:17.956Z,2.53
2022-10-25T03:23:44.505Z,2.47
2022-10-25T03:26:11.146Z,2.30
2022-10-25T03:28:37.768Z,2.50
2022-10-25T03:31:14.303Z,2.88
2022-10-25T03:33:41.069Z,2.45
2022-10-25T03:36:07.962Z,2.53
2022-10-25T03:38:34.533Z,3.15
2022-10-25T03:41:01.174Z,2.55
2022-10-25T03:43:27.779Z,3.38
2022-10-25T03:45:54.374Z,3.35
2022-10-25T03:48:20.933Z,3.22
2022-10-25T03:50:47.539Z,3.00
2022-10-25T03:53:14.965Z,2.67
2022-10-25T03:55:41.569Z,2.90
2022-10-25T03:58:08.131Z,2.92
2022-10-25T04:00:34.756Z,2.50
2022-10-25T04:03:02.526Z,2.90
2022-10-25T04:05:30.296Z,2.47
2022-10-25T04:07:57.077Z,3.17
2022-10-25T04:10:25.234Z,2.50
2022-10-25T04:12:53.863Z,2.75
2022-10-25T04:15:21.290Z,2.38
2022-10-25T04:17:51.684Z,2.33
2022-10-25T04:20:18.774Z,2.17
2022-10-25T04:22:45.508Z,2.28
2022-10-25T04:25:12.144Z,2.47
2022-10-25T04:27:38.900Z,2.80
2022-10-25T04:30:05.835Z,2.92
2022-10-25T04:32:32.436Z,2.90
2022-10-25T04:34:59.018Z,3.10
2022-10-25T04:37:25.594Z,2.22
2022-10-25T04:39:52.140Z,2.60
2022-10-25T04:42:19.613Z,2.75
2022-10-25T04:44:46.380Z,2.83
2022-10-25T04:47:13.069Z,2.72
2022-10-25T04:49:39.656Z,2.53
2022-10-25T04:52:06.283Z,2.60
2022-10-25T04:54:32.876Z,2.63
2022-10-25T04:56:59.529Z,3.10
2022-10-25T04:59:26.147Z,2.95
2022-10-25T05:01:52.757Z,3.13
2022-10-25T05:04:19.351Z,2.97
2022-10-25T05:06:46.034Z,2.88
2022-10-25T05:09:12.624Z,2.63
2022-10-25T05:11:39.269Z,3.20
2022-10-25T05:14:05.824Z,2.75
2022-10-25T05:16:34.926Z,3.42
2022-10-25T05:19:01.613Z,3.85
2022-10-25T05:21:31.460Z,2.50
2022-10-25T05:24:01.638Z,3.75
2022-10-25T05:26:29.407Z,2.90
2022-10-25T05:28:57.027Z,3.15
2022-10-25T05:31:25.715Z,3.33
2022-10-25T05:33:53.978Z,3.28
2022-10-25T05:36:20.700Z,3.30
2022-10-25T05:38:47.376Z,3.17
2022-10-25T05:41:15.284Z,3.35
2022-10-25T05:43:42.095Z,3.40
2022-10-25T05:46:14.715Z,3.33
2022-10-25T05:48:45.777Z,3.55
2022-10-25T05:51:32.533Z,3.22
2022-10-25T05:54:01.895Z,2.90
2022-10-25T05:56:29.805Z,3.28
2022-10-25T05:58:57.264Z,2.85
2022-10-25T06:01:26.598Z,2.97
2022-10-25T06:03:55.000Z,2.78
2022-10-25T06:06:23.376Z,3.20
2022-10-25T06:08:50.105Z,2.60
2022-10-25T06:11:18.349Z,2.92
2022-10-25T06:13:45.159Z,3.00
2022-10-25T06:16:13.609Z,2.97
2022-10-25T06:18:40.208Z,3.13
2022-10-25T06:21:11.422Z,3.45
2022-10-25T06:23:38.274Z,3.67
2022-10-25T06:26:09.393Z,3.53
2022-10-25T06:28:36.276Z,3.30
2022-10-25T06:31:13.974Z,3.17
2022-10-25T06:33:40.686Z,3.13
2022-10-25T06:36:18.615Z,2.90
2022-10-25T06:38:45.795Z,3.35
2022-10-25T06:41:16.992Z,3.10
2022-10-25T06:43:43.655Z,3.08
2022-10-25T06:46:13.360Z,3.25
2022-10-25T06:48:39.965Z,3.08
2022-10-25T06:51:09.828Z,3.10
2022-10-25T06:53:37.140Z,3.60
2022-10-25T06:56:06.017Z,3.30
2022-10-25T06:58:37.128Z,3.45
2022-10-25T07:01:10.048Z,3.63
2022-10-25T07:06:06.328Z,3.25
2022-10-25T07:08:33.900Z,3.78
2022-10-25T07:11:01.404Z,3.97
2022-10-25T07:13:28.211Z,4.25
2022-10-25T07:16:01.568Z,4.15
2022-10-25T07:18:28.933Z,3.10
2022-10-25T07:21:01.891Z,3.22
2022-10-25T07:25:55.413Z,2.40
2022-10-25T07:28:22.345Z,2.90
2022-10-25T07:30:49.049Z,2.55
2022-10-25T07:33:17.995Z,2.20
2022-10-25T07:35:58.783Z,2.15
2022-10-25T07:38:33.036Z,2.13
2022-10-25T07:40:59.882Z,1.83
2022-10-25T07:43:27.124Z,2.15
2022-10-25T07:45:54.110Z,2.08
2022-10-25T07:48:20.844Z,2.10
2022-10-25T07:50:47.493Z,2.33
2022-10-25T07:53:14.173Z,2.28
2022-10-25T07:55:40.834Z,2.40
2022-10-25T07:58:08.453Z,1.60
2022-10-25T08:00:36.048Z,1.85
2022-10-25T08:03:03.062Z,1.65
2022-10-25T08:05:29.757Z,2.10
2022-10-25T08:07:56.343Z,2.10
2022-10-25T08:10:23.219Z,2.25
2022-10-25T08:12:49.961Z,1.95
2022-10-25T08:15:17.219Z,1.80
2022-10-25T08:17:43.950Z,1.33
2022-10-25T08:20:10.614Z,1.90
2022-10-25T08:22:37.184Z,1.80
2022-10-25T08:25:05.343Z,2.03
2022-10-25T08:27:32.457Z,1.80
2022-10-25T08:29:59.098Z,2.67
2022-10-25T08:32:25.690Z,1.60
2022-10-25T08:34:52.240Z,1.70
2022-10-25T08:37:18.865Z,1.50
2022-10-25T08:39:45.413Z,1.58
2022-10-25T08:42:18.366Z,1.80
2022-10-25T08:47:37.752Z,1.50
2022-10-25T08:50:21.100Z,1.42
2022-10-25T08:52:53.680Z,1.60
2022-10-25T08:55:33.067Z,1.30
2022-10-25T08:58:00.213Z,1.40
2022-10-25T09:00:28.644Z,1.73
2022-10-25T09:02:56.797Z,1.92
2022-10-25T09:05:42.415Z,1.50
2022-10-25T09:08:27.816Z,1.65
2022-10-25T09:11:22.574Z,1.75
2022-10-25T09:14:07.752Z,1.63
2022-10-25T09:16:54.632Z,1.73
2022-10-25T09:19:32.813Z,1.60
2022-10-25T09:22:04.448Z,1.67
2022-10-25T09:24:56.906Z,1.23
2022-10-25T09:29:58.294Z,1.42
2022-10-25T09:32:30.057Z,1.35
2022-10-25T09:34:56.608Z,1.27
2022-10-25T09:37:46.118Z,1.40
2022-10-25T09:40:24.916Z,1.40
2022-10-25T09:42:54.444Z,1.88
2022-10-25T09:45:28.240Z,1.65
2022-10-25T09:47:58.178Z,1.38
2022-10-25T09:50:46.872Z,1.25
2022-10-25T09:53:20.284Z,1.40
2022-10-25T09:55:57.007Z,1.00
2022-10-25T09:58:25.363Z,1.85
2022-10-25T10:00:52.640Z,1.65
2022-10-25T10:03:19.608Z,1.38
2022-10-25T10:05:52.726Z,1.02
2022-10-25T10:08:19.373Z,1.85
2022-10-25T10:10:46.889Z,1.60
2022-10-25T10:13:19.533Z,1.85
2022-10-25T10:15:56.408Z,1.15
2022-10-25T10:18:26.638Z,1.33
2022-10-25T10:21:05.131Z,1.02
2022-10-25T10:23:33.798Z,1.02
2022-10-25T10:26:02.059Z,1.17
2022-10-25T10:28:28.643Z,1.58
2022-10-25T10:30:56.866Z,1.13
2022-10-25T10:33:23.607Z,0.85
2022-10-25T10:35:51.333Z,1.15
2022-10-25T10:38:22.535Z,1.88
2022-10-25T10:41:23.596Z,1.35
2022-10-25T10:43:50.501Z,1.00
2022-10-25T10:46:20.015Z,0.90
2022-10-25T10:48:47.772Z,0.98
2022-10-25T10:51:43.120Z,1.23
2022-10-25T10:54:25.685Z,1.42
2022-10-25T10:56:56.520Z,0.98
2022-10-25T10:59:46.795Z,1.42
2022-10-25T11:02:24.270Z,1.20
2022-10-25T11:04:52.680Z,1.10
2022-10-25T11:07:39.474Z,0.70
2022-10-25T11:10:15.127Z,0.80
2022-10-25T11:12:42.471Z,1.20
2022-10-25T11:15:15.096Z,1.25
2022-10-25T11:18:08.025Z,1.00
2022-10-25T11:20:41.968Z,0.80
2022-10-25T11:23:13.515Z,0.70
2022-10-25T11:26:07.415Z,0.88
2022-10-25T11:29:18.714Z,0.73
2022-10-25T11:32:13.462Z,0.88
2022-10-25T11:35:21.454Z,1.30
2022-10-25T11:38:00.495Z,0.70
2022-10-25T11:40:31.558Z,0.73
2022-10-25T11:43:19.800Z,0.80
2022-10-25T11:45:48.766Z,0.70
2022-10-25T11:48:36.622Z,0.63
2022-10-25T11:51:10.593Z,0.90
2022-10-25T11:54:02.373Z,1.15
2022-10-25T11:56:39.568Z,0.90
2022-10-25T11:59:28.204Z,0.60
2022-10-25T12:01:58.409Z,0.50
2022-10-25T12:04:40.541Z,1.20
2022-10-25T12:07:19.570Z,0.80
2022-10-25T12:09:51.614Z,0.85
2022-10-25T12:12:21.506Z,1.35
2022-10-25T12:14:50.520Z,1.08
2022-10-25T12:17:28.989Z,1.02
2022-10-25T12:19:57.956Z,0.98
2022-10-25T12:22:34.465Z,1.00
2022-10-25T12:25:59.860Z,0.90
2022-10-25T12:28:30.450Z,0.88
2022-10-25T12:31:02.374Z,1.10
2022-10-25T12:33:28.876Z,1.07
2022-10-25T12:35:59.281Z,0.98
2022-10-25T12:38:36.835Z,1.27
2022-10-25T12:41:09.840Z,1.35
2022-10-25T12:43:43.777Z,0.90
2022-10-25T12:46:10.287Z,1.42
2022-10-25T12:48:55.207Z,1.13
2022-10-25T12:51:33.096Z,1.20
2022-10-25T12:54:09.681Z,1.00
2022-10-25T12:57:09.715Z,1.30
2022-10-25T12:59:54.649Z,0.95
2022-10-25T13:02:58.481Z,0.90
2022-10-25T13:05:34.083Z,1.38
2022-10-25T13:08:04.404Z,0.95
2022-10-25T13:10:42.976Z,0.73
2022-10-25T13:13:22.360Z,1.00
2022-10-25T13:15:51.034Z,1.00
2022-10-25T13:18:32.854Z,1.25
2022-10-25T13:21:02.624Z,0.65
2022-10-25T13:23:45.751Z,0.70
2022-10-25T13:26:15.924Z,1.00
2022-10-25T13:28:56.080Z,1.00
2022-10-25T13:31:34.905Z,1.15
2022-10-25T13:34:13.710Z,1.08
2022-10-25T13:36:52.155Z,0.95
2022-10-25T13:39:43.208Z,1.10
2022-10-25T13:42:09.676Z,0.77
2022-10-25T13:44:50.027Z,0.85
2022-10-25T13:47:28.746Z,0.80
2022-10-25T13:49:55.354Z,0.88
2022-10-25T13:52:23.353Z,1.52
2022-10-25T13:54:52.084Z,1.00
2022-10-25T13:57:51.070Z,1.27
2022-10-25T14:00:23.649Z,0.82
2022-10-25T14:03:08.892Z,1.17
2022-10-25T14:05:56.542Z,0.82
2022-10-25T14:08:26.060Z,1.00
2022-10-25T14:10:53.005Z,1.27
2022-10-25T14:13:26.040Z,1.20
2022-10-25T14:15:56.753Z,1.45
2022-10-25T14:18:23.720Z,1.10
2022-10-25T14:20:53.949Z,1.05
2022-10-25T14:23:22.390Z,1.25
2022-10-25T14:25:51.216Z,0.95
2022-10-25T14:28:31.245Z,0.98
2022-10-25T14:31:05.108Z,1.02
2022-10-25T14:33:39.318Z,0.80
2022-10-25T14:36:10.743Z,0.70
2022-10-25T14:39:24.275Z,0.73
2022-10-25T14:41:53.064Z,0.80
2022-10-25T14:44:43.594Z,1.60
2022-10-25T14:47:32.850Z,1.00
2022-10-25T14:49:59.975Z,1.00
2022-10-25T14:52:26.991Z,0.95
2022-10-25T14:54:55.865Z,0.95
2022-10-25T14:57:24.165Z,1.20
2022-10-25T14:59:52.057Z,1.35
2022-10-25T15:02:24.785Z,0.90
2022-10-25T15:04:53.129Z,1.15
2022-10-25T15:07:42.498Z,0.98
2022-10-25T15:10:43.015Z,1.15
2022-10-25T15:13:22.975Z,1.10
2022-10-25T15:15:51.265Z,1.27
2022-10-25T15:18:26.912Z,1.23
2022-10-25T15:21:19.580Z,1.55
2022-10-25T15:24:21.805Z,1.83
2022-10-25T15:27:05.910Z,1.10
2022-10-25T15:29:52.950Z,0.93
2022-10-25T15:32:21.658Z,1.40
2022-10-25T15:34:59.134Z,1.48
2022-10-25T15:37:26.825Z,1.50
2022-10-25T15:39:54.569Z,1.08
2022-10-25T15:42:22.211Z,0.82
2022-10-25T15:44:48.873Z,0.90
2022-10-25T15:47:34.093Z,1.05
2022-10-25T15:50:03.755Z,1.30
2022-10-25T15:52:30.368Z,1.25
2022-10-25T15:54:57.044Z,1.00
2022-10-25T15:57:23.655Z,1.00
2022-10-25T15:59:50.238Z,0.90
2022-10-25T16:02:18.953Z,1.10
2022-10-25T16:04:46.232Z,1.05
2022-10-25T16:07:13.074Z,0.88
2022-10-25T16:09:39.897Z,1.10
2022-10-25T16:12:07.602Z,1.15
2022-10-25T16:14:34.311Z,1.40
2022-10-25T16:17:00.886Z,2.58
2022-10-25T16:19:31.524Z,0.93
2022-10-25T16:21:59.149Z,2.00
2022-10-25T16:24:25.814Z,1.50
2022-10-25T16:26:52.782Z,1.38
2022-10-25T16:29:27.064Z,1.60
2022-10-25T16:31:54.065Z,1.63
2022-10-25T16:34:20.761Z,1.35
2022-10-25T16:36:48.184Z,1.58
2022-10-25T16:39:15.080Z,1.50
2022-10-25T16:41:43.344Z,1.67
2022-10-25T16:44:12.096Z,1.73
2022-10-25T16:46:39.323Z,1.65
2022-10-25T16:49:06.104Z,2.13
2022-10-25T16:51:34.779Z,4.47
2022-10-25T16:54:01.617Z,3.35
2022-10-25T16:56:28.386Z,3.95
2022-10-25T16:58:55.025Z,3.47
2022-10-25T17:01:31.990Z,2.67
2022-10-25T17:03:58.794Z,2.67
2022-10-25T17:06:42.176Z,4.03
2022-10-25T17:09:09.481Z,3.10
2022-10-25T17:11:36.528Z,2.63
2022-10-25T17:14:03.532Z,2.10
2022-10-25T17:16:30.170Z,2.30
2022-10-25T17:18:57.387Z,2.90
2022-10-25T17:21:24.159Z,2.80
2022-10-25T17:23:50.740Z,2.33
2022-10-25T17:26:17.774Z,2.25
2022-10-25T17:28:44.738Z,2.53
2022-10-25T17:31:13.278Z,2.00
2022-10-25T17:33:40.718Z,2.90
2022-10-25T17:36:15.336Z,2.45
2022-10-25T17:38:42.393Z,2.30
2022-10-25T17:41:09.258Z,1.85
2022-10-25T17:43:39.311Z,1.90
2022-10-25T17:46:08.358Z,1.95
2022-10-25T17:48:34.968Z,2.17
2022-10-25T17:51:08.697Z,2.10
2022-10-25T17:53:35.340Z,2.30
2022-10-25T17:56:15.777Z,2.05
2022-10-25T17:58:44.032Z,2.00
2022-10-25T18:01:12.053Z,1.83
2022-10-25T18:03:38.996Z,2.58
2022-10-25T18:06:08.018Z,1.80
2022-10-25T18:08:36.432Z,1.80
2022-10-25T18:11:14.018Z,2.20
2022-10-25T18:13:43.630Z,2.83
2022-10-25T18:16:11.414Z,2.45
2022-10-25T18:18:38.862Z,2.50
2022-10-25T18:21:12.811Z,2.65
2022-10-25T18:23:39.739Z,2.45
2022-10-25T18:26:07.240Z,3.20
2022-10-25T18:28:34.491Z,2.70
2022-10-25T18:31:03.054Z,2.63
2022-10-25T18:33:30.696Z,2.85
2022-10-25T18:36:02.048Z,3.20
2022-10-25T18:38:28.734Z,3.05
2022-10-25T18:40:55.573Z,3.65
2022-10-25T18:43:23.488Z,3.35
2022-10-25T18:45:50.853Z,4.47
2022-10-25T18:48:17.421Z,5.40
2022-10-25T18:50:44.016Z,4.60
2022-10-25T18:53:10.586Z,4.78
2022-10-25T18:55:37.194Z,3.83
2022-10-25T18:58:03.871Z,3.40
2022-10-25T19:00:31.493Z,3.67
2022-10-25T19:02:58.181Z,3.53
2022-10-25T19:05:28.197Z,3.83
2022-10-25T19:07:55.746Z,3.55
2022-10-25T19:10:22.898Z,3.92
2022-10-25T19:12:51.050Z,3.95
2022-10-25T19:15:17.763Z,3.50
2022-10-25T19:17:44.355Z,3.47
2022-10-25T19:20:11.033Z,3.33
2022-10-25T19:22:37.653Z,3.92
2022-10-25T19:25:04.561Z,3.47
2022-10-25T19:27:31.135Z,3.25
2022-10-25T19:29:57.876Z,3.17
2022-10-25T19:32:24.496Z,3.05
2022-10-25T19:37:22.930Z,2.90
2022-10-25T19:39:49.618Z,3.63
2022-10-25T19:42:16.302Z,3.70
2022-10-25T19:44:42.950Z,3.42
2022-10-25T19:47:09.761Z,3.38
2022-10-25T19:49:36.426Z,3.97
2022-10-25T19:52:03.359Z,4.05
2022-10-25T19:54:29.979Z,3.35
2022-10-25T19:56:56.562Z,3.88
2022-10-25T19:59:23.200Z,3.85
2022-10-25T20:01:49.914Z,3.75
2022-10-25T20:04:16.670Z,4.10
2022-10-25T20:06:43.265Z,3.63
2022-10-25T20:09:10.368Z,4.25
2022-10-25T20:11:36.943Z,3.83
2022-10-25T20:14:03.890Z,4.20
2022-10-25T20:16:31.383Z,3.67
2022-10-25T20:18:59.750Z,3.65
2022-10-25T20:21:35.081Z,3.90
2022-10-25T20:24:05.022Z,4.03
2022-10-25T20:26:33.600Z,3.58
2022-10-25T20:29:01.960Z,3.72
2022-10-25T20:31:29.992Z,3.83
2022-10-25T20:33:56.736Z,4.00
2022-10-25T20:36:23.617Z,4.28
2022-10-25T20:38:50.271Z,4.60
2022-10-25T20:41:22.561Z,6.07
2022-10-25T20:43:51.175Z,4.90
2022-10-25T20:46:18.474Z,4.30
2022-10-25T20:48:45.763Z,4.75
2022-10-25T20:51:15.423Z,9.65
2022-10-25T20:53:44.193Z,12.63
2022-10-25T20:56:10.814Z,11.57
2022-10-25T20:58:37.465Z,6.55
2022-10-25T21:01:04.423Z,5.97
2022-10-25T21:03:31.826Z,4.43
2022-10-25T21:06:00.263Z,3.40
2022-10-25T21:08:27.330Z,3.58
2022-10-25T21:10:55.298Z,3.42
2022-10-25T21:13:22.928Z,3.65
2022-10-25T21:15:50.084Z,3.95
2022-10-25T21:18:17.072Z,3.60
2022-10-25T21:20:44.508Z,4.00
2022-10-25T21:23:11.268Z,3.60
2022-10-25T21:25:37.985Z,3.25
2022-10-25T21:28:04.906Z,3.30
2022-10-25T21:30:31.786Z,3.60
2022-10-25T21:32:58.357Z,3.40
2022-10-25T21:35:24.969Z,3.47
2022-10-25T21:37:52.040Z,3.08
2022-10-25T21:40:18.937Z,3.40
2022-10-25T21:42:45.620Z,3.80
2022-10-25T21:45:12.449Z,3.20
2022-10-25T21:47:39.077Z,3.50
2022-10-25T21:50:07.124Z,2.88
2022-10-25T21:52:33.682Z,3.00
2022-10-25T21:55:00.296Z,2.97
2022-10-25T21:57:26.983Z,2.50
2022-10-25T21:59:53.601Z,3.05
2022-10-25T22:02:20.270Z,3.20
2022-10-25T22:04:47.005Z,4.00
2022-10-25T22:07:13.576Z,2.95
2022-10-25T22:09:40.365Z,3.20
2022-10-25T22:12:07.033Z,2.22
2022-10-25T22:14:33.685Z,2.83
2022-10-25T22:17:00.205Z,2.30
2022-10-25T22:19:26.924Z,2.67
2022-10-25T22:21:53.547Z,2.30
2022-10-25T22:24:20.196Z,2.47
2022-10-25T22:26:47.063Z,2.42
2022-10-25T22:29:14.194Z,2.58
2022-10-25T22:31:41.404Z,2.38
2022-10-25T22:34:08.845Z,2.40
2022-10-25T22:36:37.908Z,2.40
2022-10-25T22:39:05.418Z,2.28
2022-10-25T22:41:32.047Z,2.25
2022-10-25T22:43:59.101Z,2.05
2022-10-25T22:46:35.424Z,3.10
2022-10-25T22:49:06.963Z,2.47
2022-10-25T22:51:33.823Z,2.65
2022-10-25T22:54:00.413Z,2.42
2022-10-25T22:56:28.435Z,3.47
2022-10-25T22:59:02.764Z,2.20
2022-10-25T23:01:34.155Z,2.50
2022-10-25T23:04:01.045Z,2.95
2022-10-25T23:06:29.825Z,2.40
2022-10-25T23:08:57.929Z,2.40
2022-10-25T23:11:26.345Z,2.22
2022-10-25T23:13:53.142Z,2.42
2022-10-25T23:16:20.072Z,2.35
2022-10-25T23:18:46.808Z,3.42
2022-10-25T23:21:21.363Z,2.20
2022-10-25T23:23:47.983Z,2.45
2022-10-25T23:26:26.039Z,2.10
2022-10-25T23:28:52.662Z,2.60
2022-10-25T23:31:19.344Z,2.33
2022-10-25T23:33:45.965Z,2.30
2022-10-25T23:36:15.583Z,2.30
2022-10-25T23:38:45.218Z,2.35
2022-10-25T23:41:12.174Z,2.53
2022-10-25T23:43:38.950Z,2.30
2022-10-25T23:46:06.083Z,2.28
2022-10-25T23:48:32.707Z,2.15
2022-10-25T23:51:10.530Z,2.30
2022-10-25T23:53:37.369Z,2.20
2022-10-25T23:56:05.903Z,2.10
2022-10-25T23:58:32.517Z,2.10
